Terminal Aerodrome Forecast
Issued by NWS Cleveland, OH

Home | Current Version | Previous Version | Text Only | Print | Product List | Glossary On
Versions: 1 2 3 4 5 6 7 8 9 10 11 12 13 14 15 16 17 18 19 20 21 22 23
000
FTUS41 KCLE 222000 AAA
TAFCAK
TAF AMD
KCAK 222012Z 2220/2318 26003KT P6SM VCTS BKN045CB
     FM230000 26003KT P6SM BKN045
     FM230300 VRB03KT 4SM BR BKN020
     FM230800 VRB03KT 1/2SM FG BKN003
     FM231500 VRB03KT 4SM HZ OVC025=

USA.gov is the U.S. government's official web portal to all federal, state and local government web resources and services.